Time;durP1;ratioP1;P1;durP2;ratioP2;P2;SDS_P1;SDS_P2;PMS_P1;PMS_P2;Temp;Humidity;BMP_temperature;BMP_pressure;BME280_temperature;BME280_humidity;BME280_pressure;Samples;Min_cycle;Max_cycle;Signal;HPM_P1;HPM_P2
2022/03/21 00:02:25;;;;;;;102.60;94.67;;;;;;;4.06;100.00;102772.91;2002642;71;32851;-78
2022/03/21 00:08:11;;;;;;;98.47;90.77;;;;;;;4.10;100.00;102770.64;2006483;71;32832;-75
2022/03/21 00:13:56;;;;;;;98.37;90.93;;;;;;;4.13;100.00;102768.34;2000887;71;32836;-75
2022/03/21 00:19:40;;;;;;;99.07;91.60;;;;;;;3.97;100.00;102782.87;2016812;71;32958;-74
2022/03/21 00:25:26;;;;;;;99.50;91.73;;;;;;;3.73;100.00;102777.70;2016956;71;33310;-76
2022/03/21 00:31:11;;;;;;;97.03;89.37;;;;;;;3.75;100.00;102778.38;1995345;71;32838;-77
2022/03/21 00:36:56;;;;;;;96.10;88.70;;;;;;;3.35;100.00;102777.00;2014659;71;33319;-73
2022/03/21 00:42:42;;;;;;;99.17;91.83;;;;;;;3.07;100.00;102770.83;2002632;71;32922;-74
2022/03/21 00:48:29;;;;;;;96.77;89.23;;;;;;;3.13;100.00;102789.27;2009478;71;32994;-77
2022/03/21 00:54:14;;;;;;;96.07;88.23;;;;;;;3.43;100.00;102775.01;2005579;71;32881;-76
2022/03/21 00:59:58;;;;;;;99.40;91.70;;;;;;;3.17;100.00;102788.37;2016938;71;32936;-77
2022/03/21 01:05:43;;;;;;;100.60;92.87;;;;;;;3.20;100.00;102790.24;2018536;71;32924;-77
2022/03/21 01:11:27;;;;;;;98.50;90.90;;;;;;;3.21;100.00;102793.30;2018937;71;32934;-76
2022/03/21 01:17:11;;;;;;;101.77;93.97;;;;;;;3.37;100.00;102794.16;2015168;71;32936;-76
2022/03/21 01:22:56;;;;;;;101.57;93.67;;;;;;;3.39;100.00;102787.94;2003918;71;32832;-75
2022/03/21 01:28:40;;;;;;;98.67;90.87;;;;;;;3.51;100.00;102782.28;2017238;71;33530;-75
2022/03/21 01:34:25;;;;;;;101.60;93.47;;;;;;;3.36;100.00;102793.30;2002633;71;32764;-83
2022/03/21 01:40:12;;;;;;;100.63;92.13;;;;;;;3.44;100.00;102785.48;2000960;71;32762;-83
2022/03/21 01:45:56;;;;;;;101.00;93.03;;;;;;;3.28;100.00;102793.92;1991716;71;32762;-74
2022/03/21 01:51:43;;;;;;;99.93;91.63;;;;;;;3.30;100.00;102793.20;2007785;71;33292;-73
2022/03/21 01:57:27;;;;;;;96.90;89.40;;;;;;;3.03;100.00;102787.34;1991618;71;32771;-78
2022/03/21 02:06:21;;;;;;;96.33;88.63;;;;;;;2.66;100.00;102786.84;2061162;69;32620;-84
2022/03/21 02:08:52;;;;;;;93.13;85.50;;;;;;;2.48;100.00;102799.20;1939647;73;26211;-77
2022/03/21 02:11:22;;;;;;;95.13;87.63;;;;;;;2.60;100.00;102800.47;1936084;73;26652;-76
2022/03/21 02:13:56;;;;;;;95.57;87.83;;;;;;;2.68;100.00;102794.91;1971092;72;26621;-83
2022/03/21 02:16:28;;;;;;;98.70;91.03;;;;;;;2.66;100.00;102795.59;1937710;74;26336;-76
2022/03/21 02:19:03;;;;;;;99.80;91.73;;;;;;;2.67;100.00;102793.19;1933739;73;26211;-77
2022/03/21 02:24:56;;;;;;;99.30;91.03;;;;;;;2.90;100.00;102787.14;2008021;71;32783;-83
2022/03/21 02:30:44;;;;;;;89.20;82.10;;;;;;;2.90;100.00;102789.89;2018722;71;32825;-81
2022/03/21 02:36:31;;;;;;;90.17;83.13;;;;;;;2.05;100.00;102787.03;2009797;71;32792;-78
2022/03/21 02:42:16;;;;;;;95.37;87.40;;;;;;;2.19;100.00;102780.22;2016632;71;33368;-79
2022/03/21 02:48:00;;;;;;;96.40;88.60;;;;;;;2.25;100.00;102774.53;1998486;71;32929;-76
2022/03/21 02:53:50;;;;;;;96.70;89.13;;;;;;;2.36;100.00;102774.09;2009840;71;32829;-75
2022/03/21 02:59:34;;;;;;;87.30;80.90;;;;;;;2.18;100.00;102774.39;2006060;71;33300;-79
2022/03/21 03:05:19;;;;;;;87.40;81.13;;;;;;;1.98;100.00;102773.70;1977259;72;32998;-77
2022/03/21 03:11:03;;;;;;;88.97;82.27;;;;;;;2.60;100.00;102772.52;2009467;71;32814;-77
2022/03/21 03:16:47;;;;;;;84.37;78.33;;;;;;;2.35;100.00;102777.89;2000741;71;32765;-74
2022/03/21 03:22:32;;;;;;;86.43;79.80;;;;;;;2.02;100.00;102778.63;2002209;71;32821;-75
2022/03/21 03:28:16;;;;;;;88.47;81.17;;;;;;;1.90;100.00;102773.23;2009666;71;33435;-78
2022/03/21 03:34:01;;;;;;;89.30;81.90;;;;;;;1.62;100.00;102780.27;1998632;71;32889;-74
2022/03/21 03:39:49;;;;;;;91.93;84.13;;;;;;;1.68;100.00;102778.16;2002486;71;32765;-74
2022/03/21 03:45:33;;;;;;;94.63;86.73;;;;;;;1.41;100.00;102739.81;1861155;70;105589;-84
2022/03/21 03:51:17;;;;;;;107.60;98.97;;;;;;;1.92;100.00;102781.29;1996751;71;38305;-74
2022/03/21 03:57:01;;;;;;;87.97;80.70;;;;;;;2.02;100.00;102775.89;2016671;71;32901;-76
2022/03/21 04:08:49;;;;;;;87.03;80.23;;;;;;;1.48;100.00;102789.23;2016911;71;33277;-76
2022/03/21 04:14:33;;;;;;;92.93;85.57;;;;;;;1.66;100.00;102787.95;2000372;71;32946;-77
2022/03/21 04:20:18;;;;;;;97.97;89.93;;;;;;;1.90;100.00;102793.79;2006115;71;33444;-81
2022/03/21 04:26:02;;;;;;;95.27;87.43;;;;;;;1.76;100.00;102803.63;2013153;71;32880;-76
2022/03/21 04:31:46;;;;;;;92.50;84.90;;;;;;;1.91;100.00;102800.98;2013204;71;32824;-75
2022/03/21 04:37:32;;;;;;;93.90;86.03;;;;;;;1.96;100.00;102805.92;2016813;71;33429;-78
2022/03/21 04:43:18;;;;;;;94.93;86.97;;;;;;;2.16;100.00;102803.90;2000861;71;33408;-81
2022/03/21 04:49:03;;;;;;;94.80;87.10;;;;;;;2.17;100.00;102807.50;2011710;71;32770;-76
2022/03/21 04:54:48;;;;;;;95.43;87.27;;;;;;;2.39;100.00;102813.51;2006482;71;33263;-76
2022/03/21 05:00:36;;;;;;;85.73;78.97;;;;;;;1.63;100.00;102808.83;2004530;71;33260;-77
2022/03/21 05:06:19;;;;;;;82.80;76.07;;;;;;;1.16;100.00;102813.45;2016600;71;32885;-77
2022/03/21 05:12:04;;;;;;;84.47;77.57;;;;;;;1.08;100.00;102825.28;2013264;71;32971;-78
2022/03/21 05:17:48;;;;;;;92.00;84.30;;;;;;;1.26;100.00;102822.33;1995147;71;32848;-84
2022/03/21 05:35:55;;;;;;;90.87;82.90;;;;;;;1.54;100.00;102827.70;2009738;70;33378;-73
2022/03/21 05:41:40;;;;;;;94.30;85.83;;;;;;;1.69;100.00;102832.78;2000759;71;32879;-75
2022/03/21 05:47:24;;;;;;;94.53;85.47;;;;;;;1.78;100.00;102833.08;2011943;71;32830;-76
2022/03/21 05:53:09;;;;;;;98.33;89.20;;;;;;;1.86;100.00;102836.80;2004576;71;33233;-77
2022/03/21 05:58:54;;;;;;;97.60;89.00;;;;;;;1.95;100.00;102837.95;2004061;71;33007;-76
2022/03/21 06:04:39;;;;;;;99.63;90.50;;;;;;;1.89;100.00;102848.77;2014873;71;32888;-74
2022/03/21 06:10:23;;;;;;;96.30;87.57;;;;;;;1.95;100.00;102843.44;2016776;71;33323;-76
2022/03/21 06:16:08;;;;;;;98.97;89.90;;;;;;;1.79;100.00;102849.87;2018667;71;32911;-74
2022/03/21 06:21:53;;;;;;;93.63;85.33;;;;;;;1.74;100.00;102861.02;2003907;71;32882;-75
2022/03/21 06:27:40;;;;;;;99.03;90.10;;;;;;;1.77;100.00;102856.54;2016760;71;32894;-74
2022/03/21 06:33:28;;;;;;;103.10;93.90;;;;;;;1.77;100.00;102870.23;1991713;71;32820;-75
2022/03/21 06:39:13;;;;;;;101.07;91.93;;;;;;;1.95;100.00;102864.50;2009499;71;32899;-76
2022/03/21 06:44:58;;;;;;;98.77;89.40;;;;;;;2.19;100.00;102876.18;1995218;71;32746;-79
2022/03/21 06:50:42;;;;;;;91.80;83.27;;;;;;;2.20;100.00;102879.27;2000691;71;32763;-75
2022/03/21 06:56:26;;;;;;;96.70;87.60;;;;;;;2.32;100.00;102876.95;2004352;71;32865;-81
2022/03/21 07:02:10;;;;;;;89.33;81.03;;;;;;;2.42;100.00;102887.70;2004554;71;33274;-79
2022/03/21 07:08:01;;;;;;;90.87;82.93;;;;;;;2.38;100.00;102890.47;2023748;71;33324;-77
2022/03/21 07:13:45;;;;;;;98.83;90.37;;;;;;;2.56;100.00;102889.15;2010050;71;32768;-79
2022/03/21 07:19:30;;;;;;;100.97;91.33;;;;;;;2.65;100.00;102894.87;2011790;71;33230;-78
2022/03/21 07:25:14;;;;;;;98.00;88.47;;;;;;;2.88;100.00;102900.37;2016575;71;32894;-78
2022/03/21 07:31:00;;;;;;;104.60;93.50;;;;;;;3.19;100.00;102897.52;2006447;71;32945;-81
2022/03/21 07:36:44;;;;;;;111.33;100.37;;;;;;;3.53;100.00;102901.97;1995289;71;32907;-78
2022/03/21 07:42:33;;;;;;;112.10;101.20;;;;;;;3.89;100.00;102891.59;2016547;71;32822;-74
2022/03/21 07:48:19;;;;;;;114.33;102.87;;;;;;;3.77;100.00;102892.56;2007933;71;33374;-74
2022/03/21 07:54:03;;;;;;;113.63;102.00;;;;;;;4.29;100.00;102887.41;2006325;71;32770;-82
2022/03/21 07:59:47;;;;;;;119.53;107.73;;;;;;;4.41;100.00;102892.20;2006184;71;33430;-75
2022/03/21 08:05:33;;;;;;;116.23;104.63;;;;;;;4.67;100.00;102882.00;1969352;72;33430;-83
2022/03/21 08:11:18;;;;;;;117.90;106.47;;;;;;;5.14;100.00;102888.25;2001371;71;33241;-77
2022/03/21 08:17:02;;;;;;;119.30;107.97;;;;;;;5.60;100.00;102890.52;2005833;71;32877;-85
2022/03/21 08:22:47;;;;;;;123.57;111.47;;;;;;;6.08;100.00;102883.98;2016552;71;32796;-77
2022/03/21 08:28:32;;;;;;;117.53;106.10;;;;;;;6.36;100.00;102874.23;2015131;71;32818;-85
2022/03/21 08:34:16;;;;;;;120.17;108.13;;;;;;;6.81;100.00;102871.22;2013076;71;32823;-76
2022/03/21 08:40:04;;;;;;;108.40;98.63;;;;;;;7.19;100.00;102871.44;1991733;71;32856;-86
2022/03/21 08:45:49;;;;;;;110.00;100.00;;;;;;;7.55;100.00;102872.36;1997231;71;32772;-75
2022/03/21 08:51:36;;;;;;;105.90;96.90;;;;;;;7.65;100.00;102872.78;1995043;71;32946;-78
2022/03/21 08:57:20;;;;;;;100.63;92.00;;;;;;;8.09;100.00;102875.59;2000843;71;32846;-80
2022/03/21 09:03:04;;;;;;;102.63;94.13;;;;;;;8.30;100.00;102870.86;2003755;71;32952;-75
2022/03/21 09:08:49;;;;;;;96.27;88.27;;;;;;;8.57;100.00;102873.77;1997337;71;33364;-83
2022/03/21 09:14:37;;;;;;;95.67;88.20;;;;;;;8.81;100.00;102865.21;2048679;69;32790;-87
2022/03/21 09:20:21;;;;;;;90.63;83.03;;;;;;;8.76;100.00;102861.73;2009647;70;33329;-77
2022/03/21 09:26:10;;;;;;;93.50;85.47;;;;;;;8.94;100.00;102866.50;1998776;71;33498;-79
2022/03/21 09:31:55;;;;;;;84.67;78.07;;;;;;;9.19;100.00;102865.97;2000331;71;33339;-82
2022/03/21 09:37:40;;;;;;;86.30;78.90;;;;;;;9.45;100.00;102856.55;1991539;71;32752;-80
2022/03/21 09:43:28;;;;;;;76.80;70.30;;;;;;;9.80;100.00;102848.45;2011317;71;32958;-78
2022/03/21 09:49:16;;;;;;;79.57;73.07;;;;;;;10.01;100.00;102848.82;2013126;70;32941;-79
2022/03/21 09:55:02;;;;;;;66.70;60.80;;;;;;;10.06;100.00;102843.96;2013119;71;32847;-82
2022/03/21 10:00:49;;;;;;;62.67;56.97;;;;;;;10.33;100.00;102841.72;2014771;71;32894;-78
2022/03/21 10:06:35;;;;;;;57.37;51.97;;;;;;;10.71;100.00;102841.36;2009658;71;33363;-77
2022/03/21 10:12:24;;;;;;;52.90;47.97;;;;;;;10.74;100.00;102833.39;1997043;71;33779;-85
2022/03/21 10:18:10;;;;;;;53.07;48.00;;;;;;;10.90;100.00;102836.05;2012997;71;32813;-83
2022/03/21 10:24:02;;;;;;;50.17;45.50;;;;;;;10.97;100.00;102836.77;2000840;71;33394;-84
2022/03/21 10:29:59;;;;;;;52.73;47.23;;;;;;;11.24;100.00;102838.02;2013055;71;32921;-82
2022/03/21 10:35:49;;;;;;;51.50;46.10;;;;;;;11.47;100.00;102831.58;2015069;71;32902;-79
2022/03/21 10:41:47;;;;;;;48.47;43.77;;;;;;;11.75;100.00;102827.54;2016971;71;32975;-75
2022/03/21 10:47:33;;;;;;;47.83;43.00;;;;;;;11.84;100.00;102818.27;2000404;71;33388;-76
2022/03/21 10:53:20;;;;;;;48.90;44.00;;;;;;;11.85;100.00;102816.59;2004650;71;32863;-76
2022/03/21 10:59:05;;;;;;;44.03;39.53;;;;;;;12.37;100.00;102808.18;2016561;71;32910;-76
2022/03/21 11:04:50;;;;;;;42.20;37.80;;;;;;;12.41;100.00;102805.19;2011467;71;32934;-79
2022/03/21 11:10:35;;;;;;;37.63;32.97;;;;;;;12.56;100.00;102798.52;2011305;71;33389;-78
2022/03/21 11:16:21;;;;;;;30.60;27.47;;;;;;;12.97;100.00;102796.41;2008122;70;32854;-75
2022/03/21 11:22:07;;;;;;;31.37;28.07;;;;;;;13.13;100.00;102793.67;2011863;71;32753;-73
2022/03/21 11:28:37;;;;;;;31.07;27.87;;;;;;;13.28;100.00;102794.99;2013300;71;32816;-77
2022/03/21 11:34:44;;;;;;;28.60;25.77;;;;;;;13.39;100.00;102796.86;2000135;71;32799;-84
2022/03/21 11:40:43;;;;;;;32.63;28.40;;;;;;;13.35;100.00;102792.30;2017138;71;32869;-79
2022/03/21 11:46:55;;;;;;;31.20;28.03;;;;;;;13.69;100.00;102781.34;2007774;71;32908;-76
2022/03/21 11:53:11;;;;;;;31.07;27.77;;;;;;;13.91;100.00;102779.10;1998967;71;32741;-78
2022/03/21 11:58:56;;;;;;;31.20;28.00;;;;;;;13.80;100.00;102776.75;2004628;71;32917;-85
2022/03/21 12:04:42;;;;;;;31.93;28.63;;;;;;;14.02;100.00;102777.59;2002522;71;33266;-77
2022/03/21 12:10:45;;;;;;;29.77;26.77;;;;;;;13.97;100.00;102777.52;2017129;71;32896;-76
2022/03/21 12:16:29;;;;;;;31.00;27.80;;;;;;;14.05;100.00;102777.61;2013177;71;33045;-77
2022/03/21 12:22:40;;;;;;;31.67;28.50;;;;;;;14.21;100.00;102771.08;2010029;71;32806;-74
2022/03/21 12:34:39;;;;;;;31.83;28.87;;;;;;;14.18;100.00;102770.76;2013655;71;32866;-75
2022/03/21 12:40:24;;;;;;;27.10;24.50;;;;;;;14.45;100.00;102764.11;2015204;71;32966;-76
2022/03/21 12:46:16;;;;;;;26.33;23.83;;;;;;;14.53;100.00;102761.38;2000881;70;32775;-75
2022/03/21 12:52:02;;;;;;;25.10;22.67;;;;;;;14.70;100.00;102757.90;1995345;71;32820;-76
2022/03/21 12:57:59;;;;;;;24.60;22.17;;;;;;;14.70;100.00;102750.06;1994889;71;32831;-76
2022/03/21 13:03:46;;;;;;;25.40;21.83;;;;;;;14.61;100.00;102757.25;1993158;71;32771;-78
2022/03/21 13:15:42;;;;;;;24.33;21.83;;;;;;;14.65;100.00;102743.02;2004282;71;33411;-75
2022/03/21 13:21:27;;;;;;;27.27;21.33;;;;;;;14.99;100.00;102740.22;2011252;71;32903;-74
2022/03/21 13:27:12;;;;;;;23.50;21.07;;;;;;;15.25;100.00;102742.63;2008097;71;32957;-77
2022/03/21 13:33:04;;;;;;;23.67;21.27;;;;;;;15.24;100.00;102735.33;2002539;71;32925;-80
2022/03/21 13:38:49;;;;;;;22.47;20.20;;;;;;;15.52;100.00;102729.38;2011002;71;32885;-75
2022/03/21 13:44:49;;;;;;;23.20;20.93;;;;;;;15.67;100.00;102716.83;1994865;71;32872;-76
2022/03/21 13:50:38;;;;;;;22.17;20.10;;;;;;;15.46;100.00;102715.02;2013450;71;33370;-73
2022/03/21 13:56:40;;;;;;;22.00;19.77;;;;;;;15.39;100.00;102710.23;2010124;71;32820;-74
2022/03/21 14:02:29;;;;;;;22.27;19.87;;;;;;;15.49;100.00;102711.66;2002505;71;32837;-71
2022/03/21 14:08:16;;;;;;;22.03;19.83;;;;;;;15.49;100.00;102705.50;2013239;71;33376;-82
2022/03/21 14:14:03;;;;;;;23.10;19.93;;;;;;;15.85;100.00;102693.07;2011285;71;33384;-76
2022/03/21 14:19:48;;;;;;;22.03;19.33;;;;;;;15.87;100.00;102690.27;2004649;71;32777;-76
2022/03/21 14:31:36;;;;;;;22.53;20.20;;;;;;;15.78;100.00;102679.89;2013195;71;33313;-75
2022/03/21 14:37:21;;;;;;;23.80;21.30;;;;;;;15.70;100.00;102680.43;2011704;71;32846;-76
2022/03/21 14:43:06;;;;;;;23.07;20.77;;;;;;;15.92;100.00;102678.22;2009281;71;32896;-73
2022/03/21 14:48:53;;;;;;;22.97;20.57;;;;;;;15.84;100.00;102675.41;2007729;71;32843;-75
2022/03/21 14:54:38;;;;;;;23.03;20.77;;;;;;;15.96;100.00;102668.73;2006688;71;33386;-73
2022/03/21 15:00:22;;;;;;;23.13;20.93;;;;;;;16.06;100.00;102665.92;2012930;71;32963;-77
2022/03/21 15:06:08;;;;;;;19.83;18.03;;;;;;;16.12;100.00;102662.86;2009707;71;32999;-72
2022/03/21 15:11:53;;;;;;;21.17;19.30;;;;;;;15.98;100.00;102654.70;2013027;71;32842;-72
2022/03/21 15:17:38;;;;;;;21.17;19.20;;;;;;;16.11;100.00;102654.16;1985111;71;32853;-75
2022/03/21 15:23:24;;;;;;;21.80;19.67;;;;;;;16.18;100.00;102656.68;2010037;71;33439;-74
2022/03/21 15:29:10;;;;;;;21.07;19.13;;;;;;;16.14;100.00;102643.78;2016687;71;32902;-82
2022/03/21 15:34:55;;;;;;;20.83;18.70;;;;;;;16.18;100.00;102646.31;1998939;71;32766;-80
2022/03/21 15:46:43;;;;;;;22.00;20.00;;;;;;;16.12;100.00;102638.19;2008594;71;32937;-77
2022/03/21 15:52:29;;;;;;;21.10;19.07;;;;;;;16.03;100.00;102633.69;2006496;71;33361;-74
2022/03/21 15:58:14;;;;;;;19.53;17.73;;;;;;;16.13;100.00;102639.29;2002228;71;32760;-78
2022/03/21 16:04:00;;;;;;;19.33;17.80;;;;;;;16.08;100.00;102635.11;2008022;71;32920;-77
2022/03/21 16:09:43;;;;;;;20.63;18.63;;;;;;;16.06;100.00;102633.68;2008174;71;33298;-77
2022/03/21 16:15:28;;;;;;;20.03;18.17;;;;;;;15.96;100.00;102631.70;2015136;71;32907;-79
2022/03/21 16:21:13;;;;;;;19.37;17.50;;;;;;;15.98;100.00;102628.08;2011535;71;32861;-73
2022/03/21 16:26:57;;;;;;;19.33;17.60;;;;;;;15.94;100.00;102635.36;2009515;71;32857;-78
2022/03/21 16:32:42;;;;;;;18.83;17.07;;;;;;;16.02;100.00;102630.60;2011598;71;32888;-78
2022/03/21 16:38:26;;;;;;;20.40;18.50;;;;;;;16.04;100.00;102631.17;2016686;71;32918;-75
2022/03/21 16:44:10;;;;;;;18.80;16.97;;;;;;;16.08;100.00;102632.30;1998819;71;32860;-78
2022/03/21 16:49:55;;;;;;;18.10;16.40;;;;;;;15.92;100.00;102630.58;2016806;70;33415;-75
2022/03/21 16:55:41;;;;;;;18.77;16.87;;;;;;;16.05;100.00;102636.20;2002583;71;33414;-77
2022/03/21 17:01:25;;;;;;;17.27;15.80;;;;;;;15.84;100.00;102633.37;2015199;71;33301;-77
2022/03/21 17:07:10;;;;;;;17.97;16.33;;;;;;;15.89;100.00;102639.55;2009931;71;33372;-79
2022/03/21 17:12:55;;;;;;;16.43;15.03;;;;;;;15.83;100.00;102641.48;2011819;71;32859;-82
2022/03/21 17:24:43;;;;;;;18.17;16.40;;;;;;;15.71;100.00;102641.46;2015039;71;32985;-76
2022/03/21 17:30:27;;;;;;;17.60;15.93;;;;;;;15.60;100.00;102654.61;1991624;71;32845;-73
2022/03/21 17:36:12;;;;;;;17.30;15.70;;;;;;;15.51;100.00;102654.86;2009271;71;32996;-74
2022/03/21 17:41:57;;;;;;;17.57;15.83;;;;;;;15.14;100.00;102666.15;2007797;71;33381;-74
2022/03/21 17:47:42;;;;;;;18.10;16.27;;;;;;;15.07;100.00;102660.48;2008292;70;33273;-75
2022/03/21 17:53:26;;;;;;;20.83;18.63;;;;;;;14.82;100.00;102673.22;2011691;71;32834;-72
2022/03/21 17:59:11;;;;;;;20.17;18.40;;;;;;;14.87;100.00;102673.81;2016853;71;32856;-75
2022/03/21 18:04:57;;;;;;;20.30;18.30;;;;;;;14.70;100.00;102682.37;1894458;70;33237;-71
2022/03/21 18:10:42;;;;;;;20.53;18.53;;;;;;;14.38;100.00;102689.36;2011250;71;32930;-72
2022/03/21 18:16:26;;;;;;;20.13;18.13;;;;;;;14.32;100.00;102696.55;2011206;71;32832;-72
2022/03/21 18:22:12;;;;;;;20.63;18.67;;;;;;;13.64;100.00;102698.07;1997010;71;32777;-71
2022/03/21 18:27:56;;;;;;;20.07;18.07;;;;;;;13.56;100.00;102711.09;2009713;71;32776;-77
2022/03/21 18:33:41;;;;;;;20.40;18.47;;;;;;;13.46;100.00;102720.73;2011207;71;32947;-72
2022/03/21 18:39:25;;;;;;;20.07;18.33;;;;;;;13.24;100.00;102729.08;2016507;71;32900;-71
2022/03/21 18:45:13;;;;;;;22.23;20.13;;;;;;;13.08;100.00;102740.55;2008111;71;32892;-75
2022/03/21 18:50:58;;;;;;;23.77;21.43;;;;;;;12.89;100.00;102750.27;2013373;71;33461;-75
2022/03/21 18:56:43;;;;;;;24.10;21.90;;;;;;;12.69;100.00;102756.38;2015027;71;33365;-74
2022/03/21 19:02:27;;;;;;;24.23;21.77;;;;;;;12.42;100.00;102753.08;2007850;71;33344;-74
2022/03/21 19:08:12;;;;;;;25.30;22.90;;;;;;;12.44;100.00;102762.91;2018281;70;32917;-71
2022/03/21 19:13:57;;;;;;;26.30;23.30;;;;;;;12.52;100.00;102768.61;2002586;71;32812;-71
2022/03/21 19:19:43;;;;;;;27.03;24.17;;;;;;;12.41;100.00;102780.11;2014995;71;33307;-70
2022/03/21 19:25:29;;;;;;;28.30;25.47;;;;;;;12.22;100.00;102787.00;2013106;71;32821;-70
2022/03/21 19:31:14;;;;;;;29.63;26.47;;;;;;;12.05;100.00;102791.67;2000712;70;32879;-73
2022/03/21 19:36:58;;;;;;;27.97;25.23;;;;;;;11.73;100.00;102795.45;2006307;71;32809;-72
2022/03/21 19:42:43;;;;;;;29.63;26.63;;;;;;;11.69;100.00;102800.63;1994911;71;33347;-73
2022/03/21 19:48:28;;;;;;;30.60;27.50;;;;;;;11.60;100.00;102806.27;2014826;71;33411;-72
2022/03/21 19:54:14;;;;;;;30.40;27.53;;;;;;;11.45;100.00;102807.34;2011017;71;32973;-72
2022/03/21 19:59:58;;;;;;;34.07;30.47;;;;;;;11.20;100.00;102809.53;2013396;71;33314;-71
2022/03/21 20:11:39;;;;;;;37.77;34.13;;;;;;;10.78;100.00;102819.89;2009690;71;32879;-77
2022/03/21 20:17:23;;;;;;;40.10;36.37;;;;;;;10.65;100.00;102819.55;2008133;71;33257;-69
2022/03/21 20:23:08;;;;;;;40.47;36.97;;;;;;;10.54;100.00;102823.13;2007638;71;33325;-70
2022/03/21 20:28:53;;;;;;;46.13;42.03;;;;;;;10.34;100.00;102830.92;2009812;71;32782;-75
2022/03/21 20:34:37;;;;;;;46.63;42.77;;;;;;;10.23;100.00;102833.09;2014706;71;32898;-71
2022/03/21 20:40:22;;;;;;;49.90;45.50;;;;;;;10.06;100.00;102828.69;2006212;71;32846;-74
2022/03/21 20:46:09;;;;;;;50.47;46.13;;;;;;;9.96;100.00;102834.81;2006135;71;32773;-75
2022/03/21 20:51:54;;;;;;;51.70;47.43;;;;;;;9.96;100.00;102840.91;2014805;71;32998;-74
2022/03/21 20:57:39;;;;;;;56.57;51.80;;;;;;;10.03;100.00;102843.90;1995628;71;32762;-74
2022/03/21 21:03:25;;;;;;;65.53;59.90;;;;;;;9.75;100.00;102848.31;2013543;71;32739;-75
2022/03/21 21:09:09;;;;;;;64.93;59.73;;;;;;;9.71;100.00;102842.92;2002718;71;33421;-74
2022/03/21 21:14:54;;;;;;;63.53;58.30;;;;;;;9.54;100.00;102853.78;2011032;71;32809;-73
2022/03/21 21:20:39;;;;;;;63.97;58.50;;;;;;;9.39;100.00;102855.52;2012987;71;32812;-70
2022/03/21 21:26:23;;;;;;;65.70;60.50;;;;;;;9.49;100.00;102858.62;2016573;71;32883;-69
2022/03/21 21:32:10;;;;;;;69.83;64.00;;;;;;;9.39;100.00;102856.91;2005397;70;32905;-77
2022/03/21 21:37:54;;;;;;;83.43;77.07;;;;;;;9.23;100.00;102863.05;2011154;71;32902;-75
2022/03/21 21:43:38;;;;;;;85.57;79.33;;;;;;;9.09;100.00;102862.84;1991536;71;32822;-69
2022/03/21 21:49:23;;;;;;;85.67;79.17;;;;;;;9.03;100.00;102875.67;2011446;71;33318;-68
2022/03/21 21:55:10;;;;;;;87.30;80.97;;;;;;;8.93;100.00;102869.80;2014678;71;32811;-74
2022/03/21 22:00:54;;;;;;;88.93;82.43;;;;;;;8.90;100.00;102868.02;1998430;71;32816;-79
2022/03/21 22:06:38;;;;;;;89.13;82.33;;;;;;;8.88;100.00;102871.02;2007864;71;32902;-75
2022/03/21 22:12:23;;;;;;;91.87;84.70;;;;;;;8.82;100.00;102869.12;2017058;71;33443;-77
2022/03/21 22:18:08;;;;;;;94.37;86.77;;;;;;;8.89;100.00;102870.48;2008017;71;32745;-72
2022/03/21 22:23:52;;;;;;;93.23;85.73;;;;;;;8.93;100.00;102868.42;2000791;71;32842;-72
2022/03/21 22:29:36;;;;;;;94.17;86.60;;;;;;;8.83;100.00;102862.52;1991493;71;33201;-77
2022/03/21 22:35:25;;;;;;;97.33;89.87;;;;;;;8.76;100.00;102860.87;1995170;71;32826;-77
2022/03/21 22:47:15;;;;;;;95.93;88.33;;;;;;;8.64;100.00;102862.95;1995089;71;32848;-77
2022/03/21 22:53:01;;;;;;;99.07;91.27;;;;;;;8.56;100.00;102860.45;2012188;71;33303;-76
2022/03/21 22:58:47;;;;;;;98.57;90.83;;;;;;;8.51;100.00;102857.53;2009818;71;33048;-71
2022/03/21 23:04:34;;;;;;;97.03;89.30;;;;;;;8.45;100.00;102847.86;1989681;71;32907;-72
2022/03/21 23:10:18;;;;;;;95.93;88.73;;;;;;;8.52;100.00;102852.28;2009379;71;32846;-78
2022/03/21 23:16:03;;;;;;;101.73;93.73;;;;;;;8.60;100.00;102849.80;2008287;71;32850;-76
2022/03/21 23:21:48;;;;;;;96.70;89.10;;;;;;;8.81;100.00;102846.66;2014754;71;32835;-71
2022/03/21 23:27:33;;;;;;;101.23;93.57;;;;;;;8.73;100.00;102847.48;2016809;71;32913;-77
2022/03/21 23:33:19;;;;;;;103.13;95.23;;;;;;;8.60;100.00;102852.02;2013323;71;33202;-71
2022/03/21 23:39:04;;;;;;;100.80;92.90;;;;;;;8.67;100.00;102851.98;2009290;71;32835;-77
2022/03/21 23:44:49;;;;;;;99.90;92.40;;;;;;;8.89;100.00;102853.84;1998852;71;33246;-72
2022/03/21 23:50:33;;;;;;;102.27;94.23;;;;;;;9.08;100.00;102845.35;2013553;71;33318;-78
2022/03/21 23:56:18;;;;;;;96.43;89.03;;;;;;;9.12;100.00;102846.59;2000076;71;32851;-71
